Pittston, Pennsylvania
Current Conditions -  °F | °C
As of 8:54 PM on Friday 28 Nov 2014 (Local Time) from KAVP Reporting Station
Clear Clear  
Wind Chill:   Ceiling: Unl
Heat Index: 16°   Visibility: 10mi
Dew Point: 10°   Wind: 7mph
Humidity: 77%   Direction: 190°S
Pressure: 30.22"   Gusts: NA
Location:  41.32°N, 75.79°W
Report Text: KAVP 290154Z 19006KT 10SM CLR M09/M12 A3022 RMK AO2 SLP245 T10891122
Loading
Personal Weather Stations






























Interactive Weather Map New forecast layout! Learn more

10-Day Weather Forecast

Advertisements
Track Severe Weather on mobile